Time;durP1;ratioP1;P1;durP2;ratioP2;P2;SDS_P1;SDS_P2;PMS_P1;PMS_P2;Temp;Humidity;BMP_temperature;BMP_pressure;BME280_temperature;BME280_humidity;BME280_pressure;Samples;Min_cycle;Max_cycle;Signal;HPM_P1;HPM_P2
2021/01/16 05:29:02;;;;;;;36.63;21.87;;;0.40;99.90;;;;;;6018894;23;20197;-84
2021/01/16 05:48:15;;;;;;;33.63;20.53;;;0.40;99.90;;;;;;6265950;22;20441;-77
2021/01/16 07:03:40;;;;;;;38.30;22.20;;;0.50;99.90;;;;;;6239888;22;20432;-87
2021/01/16 08:12:37;;;;;;;44.40;22.75;;;0.80;93.40;;;;;;6219262;22;20401;-83
2021/01/16 08:16:02;;;;;;;;;;;;;;;;;;;;;
2021/01/16 09:49:01;;;;;;;28.83;15.53;;;1.70;52.10;;;;;;6077503;22;20207;-83
2021/01/16 09:51:33;;;;;;;22.30;14.87;;;1.70;53.50;;;;;;6286500;22;20445;-76
2021/01/16 09:57:32;;;;;;;27.63;15.60;;;1.70;49.20;;;;;;6182704;23;20405;-82
2021/01/16 10:00:10;;;;;;;25.73;15.07;;;1.80;49.30;;;;;;6182801;23;20604;-82
2021/01/16 10:03:07;;;;;;;26.40;15.53;;;1.70;49.30;;;;;;6235413;22;21033;-82
2021/01/16 10:06:27;;;;;;;;;;;;;;;;;;;;;
2021/01/16 10:18:54;;;;;;;;;;;;;;;;;;;;;
2021/01/16 10:22:09;;;;;;;27.23;15.90;;;1.90;51.90;;;;;;6093630;23;20470;-83
2021/01/16 10:28:54;;;;;;;;;;;;;;;;;;;;;
2021/01/16 10:32:05;;;;;;;24.85;14.73;;;1.80;52.30;;;;;;6182072;23;20696;-83
2021/01/16 10:34:39;;;;;;;29.63;15.93;;;1.90;52.30;;;;;;6212470;23;20164;-83
2021/01/16 10:37:13;;;;;;;32.43;15.93;;;1.90;49.40;;;;;;6273371;22;20404;-82
2021/01/16 10:40:15;;;;;;;29.75;15.00;;;1.80;50.20;;;;;;6307252;22;20429;-83
2021/01/16 10:42:51;;;;;;;30.10;16.60;;;1.90;48.20;;;;;;6244923;22;20623;-83
2021/01/16 10:45:22;;;;;;;26.77;15.80;;;1.80;49.40;;;;;;6319940;22;20397;-82
2021/01/16 10:47:49;;;;;;;29.73;16.43;;;1.70;48.90;;;;;;6308097;22;20429;-82
2021/01/16 10:53:18;;;;;;;36.80;17.80;;;1.70;51.70;;;;;;6349363;22;20408;-81
2021/01/16 10:55:54;;;;;;;28.63;16.13;;;1.70;54.80;;;;;;6340177;22;21067;-82
2021/01/16 10:58:41;;;;;;;30.40;15.87;;;1.80;55.10;;;;;;6351196;22;20929;-82
2021/01/16 11:01:43;;;;;;;34.63;16.83;;;1.70;54.80;;;;;;6340328;22;20436;-83
2021/01/16 11:04:18;;;;;;;37.17;18.50;;;1.70;54.80;;;;;;6258845;22;20768;-82
2021/01/16 11:06:51;;;;;;;30.47;18.33;;;1.80;54.90;;;;;;6340540;22;20394;-81
2021/01/16 11:09:51;;;;;;;31.13;17.27;;;1.80;55.90;;;;;;6350224;22;20440;-79
2021/01/16 11:12:34;;;;;;;26.37;15.70;;;1.70;55.20;;;;;;6244816;23;20410;-79
2021/01/16 11:15:01;;;;;;;33.80;16.90;;;1.80;55.20;;;;;;6341706;22;20914;-81
2021/01/16 11:17:47;;;;;;;31.93;16.43;;;1.80;55.70;;;;;;6349736;22;20405;-81
2021/01/16 11:20:22;;;;;;;37.63;19.00;;;1.80;57.00;;;;;;6350667;22;20892;-82
2021/01/16 11:23:17;;;;;;;34.73;17.67;;;1.90;55.00;;;;;;6340525;22;20404;-81
2021/01/16 11:25:45;;;;;;;35.10;17.70;;;1.80;50.00;;;;;;6326696;22;20771;-82
2021/01/16 11:28:15;;;;;;;35.30;18.13;;;1.90;52.40;;;;;;6350871;22;20459;-81
2021/01/16 11:30:46;;;;;;;35.20;18.23;;;2.00;54.00;;;;;;6350492;22;20779;-81
2021/01/16 11:33:23;;;;;;;31.60;16.33;;;2.00;55.10;;;;;;6338875;22;20488;-81
2021/01/16 11:36:08;;;;;;;33.90;18.33;;;2.10;50.30;;;;;;6350475;22;20525;-81
2021/01/16 11:38:45;;;;;;;29.00;16.10;;;2.00;49.60;;;;;;6340205;22;20455;-81
2021/01/16 11:41:15;;;;;;;32.50;17.73;;;2.00;49.20;;;;;;6339501;22;20396;-80
2021/01/16 11:43:42;;;;;;;26.57;16.00;;;2.20;49.20;;;;;;6339857;22;20155;-82
2021/01/16 11:46:10;;;;;;;31.60;19.05;;;2.20;50.00;;;;;;6340153;22;20396;-81
2021/01/16 11:48:38;;;;;;;26.73;15.30;;;2.30;46.90;;;;;;6348750;22;20492;-81
2021/01/16 11:51:19;;;;;;;27.87;15.50;;;2.30;41.50;;;;;;6339754;22;20397;-81
2021/01/16 11:53:55;;;;;;;29.60;14.20;;;2.30;36.00;;;;;;6340072;22;20728;-83
2021/01/16 11:56:28;;;;;;;26.60;14.67;;;2.40;36.20;;;;;;6349858;22;20439;-82
2021/01/16 11:58:57;;;;;;;26.03;14.63;;;2.40;33.00;;;;;;6350365;22;20781;-82
2021/01/16 12:01:25;;;;;;;24.20;15.60;;;2.50;32.60;;;;;;6351106;22;20767;-80
2021/01/16 12:03:55;;;;;;;29.23;15.00;;;2.40;34.50;;;;;;6338484;22;20400;-81
2021/01/16 12:06:21;;;;;;;25.03;15.13;;;2.50;34.00;;;;;;6339763;22;20397;-81
2021/01/16 12:08:49;;;;;;;25.77;14.67;;;2.50;33.20;;;;;;6339949;22;20533;-81
2021/01/16 12:11:16;;;;;;;32.67;19.57;;;2.60;32.30;;;;;;6339483;22;20393;-82
2021/01/16 12:13:50;;;;;;;23.73;15.73;;;2.60;34.00;;;;;;6350526;22;20483;-81
2021/01/16 12:16:16;;;;;;;23.70;15.70;;;2.70;31.20;;;;;;6349960;22;20411;-82
2021/01/16 12:18:43;;;;;;;25.97;14.87;;;2.80;31.50;;;;;;6348405;22;20476;-82
2021/01/16 12:21:13;;;;;;;28.42;17.70;;;2.70;30.50;;;;;;6339137;22;20393;-81
2021/01/16 12:23:44;;;;;;;28.23;15.77;;;2.80;31.20;;;;;;6340033;22;20489;-82
2021/01/16 12:26:15;;;;;;;31.63;18.70;;;3.00;30.70;;;;;;6339293;22;20401;-81
2021/01/16 12:28:46;;;;;;;31.60;16.87;;;3.00;30.90;;;;;;6339613;22;20455;-81
2021/01/16 12:31:20;;;;;;;22.10;13.83;;;2.90;30.00;;;;;;6350203;22;20415;-82
2021/01/16 12:33:47;;;;;;;32.20;15.33;;;3.10;30.00;;;;;;6337762;22;20436;-81
2021/01/16 12:36:17;;;;;;;22.00;13.23;;;2.90;30.00;;;;;;6339813;22;20437;-82
2021/01/16 12:39:04;;;;;;;26.60;13.60;;;2.90;30.90;;;;;;6349827;22;20810;-82
2021/01/16 12:41:33;;;;;;;20.60;11.50;;;2.90;29.90;;;;;;6339103;22;20428;-81
2021/01/16 12:44:19;;;;;;;21.37;12.50;;;2.70;29.20;;;;;;6339588;22;20397;-82
2021/01/16 12:46:45;;;;;;;22.13;13.03;;;2.70;29.80;;;;;;6336218;22;20503;-81
2021/01/16 12:49:12;;;;;;;22.27;11.50;;;2.70;28.00;;;;;;6343956;22;20455;-81
2021/01/16 12:52:09;;;;;;;23.00;12.55;;;2.70;26.70;;;;;;6336911;22;20780;-81
2021/01/16 12:54:39;;;;;;;24.83;11.00;;;2.60;26.50;;;;;;6246457;22;20541;-81
2021/01/16 12:57:09;;;;;;;18.53;10.57;;;2.50;25.40;;;;;;6347642;22;20401;-83
2021/01/16 12:59:36;;;;;;;16.80;9.80;;;2.60;25.90;;;;;;6348358;22;20541;-80
2021/01/16 13:02:02;;;;;;;21.90;11.53;;;2.50;23.90;;;;;;6335516;22;20447;-81
2021/01/16 13:04:29;;;;;;;17.93;11.67;;;2.50;24.10;;;;;;6336591;22;20727;-81
2021/01/16 13:07:02;;;;;;;15.57;9.20;;;2.50;24.20;;;;;;6336851;22;20484;-82
2021/01/16 13:09:32;;;;;;;16.73;9.30;;;2.40;22.70;;;;;;6347990;22;20508;-83
2021/01/16 13:12:02;;;;;;;18.90;8.40;;;2.40;23.20;;;;;;6337007;22;20415;-82
2021/01/16 13:14:47;;;;;;;12.00;6.28;;;2.30;23.50;;;;;;6337647;22;20404;-82
2021/01/16 13:17:18;;;;;;;22.07;10.50;;;2.50;23.80;;;;;;6346261;22;20163;-81
2021/01/16 13:19:57;;;;;;;16.53;8.47;;;2.30;22.60;;;;;;6347972;22;20462;-81
2021/01/16 13:22:30;;;;;;;14.43;6.85;;;2.30;23.40;;;;;;6337515;22;20408;-81
2021/01/16 13:25:08;;;;;;;14.53;8.23;;;2.30;21.80;;;;;;6337166;22;21033;-81
2021/01/16 13:31:00;;;;;;;;;;;;;;;;;;;;;
2021/01/16 13:34:22;;;;;;;20.30;9.50;;;2.40;22.40;;;;;;6335034;22;20404;-82
2021/01/16 13:37:00;;;;;;;18.43;11.27;;;2.40;22.70;;;;;;6332928;22;20745;-82
2021/01/16 13:39:45;;;;;;;15.73;7.50;;;2.40;22.70;;;;;;6337284;22;20428;-82
2021/01/16 13:42:21;;;;;;;19.80;10.27;;;2.30;22.60;;;;;;6337106;22;20401;-82
2021/01/16 13:45:06;;;;;;;16.07;8.30;;;2.20;23.20;;;;;;6347278;22;20469;-82
2021/01/16 13:47:47;;;;;;;12.20;7.13;;;2.50;22.10;;;;;;6335450;22;20512;-79
2021/01/16 13:50:16;;;;;;;13.15;7.20;;;2.40;20.00;;;;;;6346827;22;20436;-82
2021/01/16 13:52:53;;;;;;;14.53;7.00;;;2.40;22.30;;;;;;6336935;22;20166;-82
2021/01/16 13:55:22;;;;;;;11.50;5.73;;;2.40;22.70;;;;;;6337010;22;20408;-82
2021/01/16 13:58:21;;;;;;;;;;;;;;;;;;;;;
2021/01/16 14:00:51;;;;;;;6.90;3.80;;;2.30;18.90;;;;;;6322607;22;20415;-82
2021/01/16 14:04:14;;;;;;;;;;;;;;;;;;;;;
2021/01/16 14:07:36;;;;;;;;;;;;;;;;;;;;;
2021/01/16 14:10:27;;;;;;;11.97;5.60;;;2.20;18.90;;;;;;6116190;23;20943;-82
2021/01/16 14:13:11;;;;;;;10.10;6.43;;;2.20;19.00;;;;;;6337002;22;20397;-81
2021/01/16 14:16:13;;;;;;;;;;;;;;;;;;;;;
2021/01/16 14:18:41;;;;;;;12.60;7.27;;;2.10;19.70;;;;;;6345688;22;20468;-81
2021/01/16 14:21:55;;;;;;;14.37;6.43;;;2.10;20.40;;;;;;6337342;22;20397;-82
2021/01/16 14:24:49;;;;;;;11.00;5.97;;;2.00;19.30;;;;;;6190647;23;20916;-82
2021/01/16 14:27:16;;;;;;;15.00;8.03;;;2.10;19.80;;;;;;6296965;22;20585;-82
2021/01/16 14:30:22;;;;;;;11.80;6.93;;;2.10;19.90;;;;;;6337206;22;20404;-82
2021/01/16 14:33:13;;;;;;;10.30;5.83;;;2.00;19.10;;;;;;6345842;22;20431;-81
2021/01/16 14:38:45;;;;;;;15.90;8.50;;;2.00;22.20;;;;;;6320354;22;20535;-82
2021/01/16 14:41:14;;;;;;;11.70;6.10;;;1.90;19.90;;;;;;6336511;22;20384;-82
2021/01/16 14:43:42;;;;;;;16.53;8.73;;;2.00;18.90;;;;;;6336694;22;20401;-82
2021/01/16 14:52:55;;;;;;;;;;;;;;;;;;;;;
2021/01/16 14:58:24;;;;;;;;;;;;;;;;;;;;;
2021/01/16 15:01:33;;;;;;;19.00;11.20;;;1.90;21.00;;;;;;6347848;22;20539;-84
2021/01/16 15:04:20;;;;;;;;;;;;;;;;;;;;;
2021/01/16 15:17:03;;;;;;;20.23;11.43;;;1.70;22.20;;;;;;6077219;23;20483;-83
2021/01/16 15:19:43;;;;;;;21.13;10.73;;;1.70;22.20;;;;;;6140418;23;20413;-82
2021/01/16 15:22:47;;;;;;;15.60;8.73;;;1.60;22.70;;;;;;6253127;22;20451;-82
2021/01/16 15:25:30;;;;;;;;;;;;;;;;;;;;;
2021/01/16 15:28:00;;;;;;;19.80;10.07;;;1.60;22.20;;;;;;6332931;22;20436;-82
2021/01/16 15:31:20;;;;;;;14.33;8.67;;;1.50;22.10;;;;;;6347260;22;20415;-82
2021/01/16 15:34:05;;;;;;;15.73;8.40;;;1.50;23.20;;;;;;6306491;22;20408;-82
2021/01/16 15:36:31;;;;;;;16.20;8.80;;;1.60;22.10;;;;;;6348721;22;20244;-82
2021/01/16 15:39:00;;;;;;;17.77;10.03;;;1.40;24.30;;;;;;6348834;22;20407;-82
2021/01/16 15:41:34;;;;;;;16.03;7.90;;;1.40;24.10;;;;;;6338383;22;20452;-82
2021/01/16 15:44:10;;;;;;;15.67;8.80;;;1.40;24.40;;;;;;6338204;22;20425;-81
2021/01/16 15:46:37;;;;;;;19.87;10.60;;;1.40;24.70;;;;;;6338165;22;20396;-81
2021/01/16 15:49:05;;;;;;;18.53;9.33;;;1.30;25.10;;;;;;6336005;22;20465;-81
2021/01/16 15:51:38;;;;;;;17.90;9.73;;;1.30;25.40;;;;;;6338025;22;20487;-82
2021/01/16 15:54:11;;;;;;;18.23;10.83;;;1.20;25.00;;;;;;6337509;22;20598;-81
2021/01/16 15:56:38;;;;;;;19.20;9.93;;;1.30;25.70;;;;;;6348377;22;20401;-80
2021/01/16 15:59:08;;;;;;;16.30;9.27;;;1.20;24.90;;;;;;6348958;22;20409;-80
2021/01/16 16:01:44;;;;;;;17.48;10.63;;;1.30;24.30;;;;;;6348515;22;20412;-81
2021/01/16 16:04:17;;;;;;;15.57;9.10;;;1.20;24.70;;;;;;6336500;22;20150;-81
2021/01/16 16:06:44;;;;;;;12.57;8.37;;;1.20;25.50;;;;;;6337846;22;20393;-81
2021/01/16 16:09:23;;;;;;;14.80;9.57;;;1.20;26.70;;;;;;6337744;22;20516;-81
2021/01/16 16:11:55;;;;;;;16.92;9.75;;;1.20;25.40;;;;;;6337690;22;20465;-81
2021/01/16 16:23:55;;;;;;;17.55;8.63;;;1.20;26.20;;;;;;6348131;22;20405;-81
2021/01/16 16:26:23;;;;;;;16.95;8.98;;;1.20;26.20;;;;;;6338134;22;20162;-81
2021/01/16 16:28:51;;;;;;;18.92;9.45;;;1.10;26.30;;;;;;6348063;22;20186;-81
2021/01/16 16:31:33;;;;;;;17.33;9.07;;;1.20;24.60;;;;;;6348093;22;20622;-80
2021/01/16 16:37:21;;;;;;;12.50;6.90;;;1.20;25.10;;;;;;6307990;22;20432;-80
2021/01/16 16:39:48;;;;;;;17.30;8.90;;;1.20;25.20;;;;;;6348468;22;20393;-82
2021/01/16 16:42:16;;;;;;;16.53;8.80;;;1.20;25.60;;;;;;6337893;22;20397;-80
2021/01/16 16:44:42;;;;;;;13.07;8.40;;;1.20;24.50;;;;;;6338114;22;20388;-80
2021/01/16 16:53:08;;;;;;;17.67;8.50;;;1.30;23.80;;;;;;6349694;22;20484;-80
2021/01/16 16:55:45;;;;;;;14.50;8.83;;;1.30;22.40;;;;;;6349552;22;20877;-80
2021/01/16 16:58:26;;;;;;;16.47;9.73;;;1.20;23.80;;;;;;6349592;22;20424;-80
2021/01/16 17:01:02;;;;;;;;;;;;;;;;;;;;;
2021/01/16 17:03:30;;;;;;;16.53;10.30;;;1.20;24.70;;;;;;6337465;22;20415;-81
2021/01/16 17:06:10;;;;;;;17.10;10.30;;;1.20;24.90;;;;;;6339544;22;20429;-80
2021/01/16 17:08:46;;;;;;;19.53;8.60;;;1.20;25.10;;;;;;6349737;22;20432;-81
2021/01/16 17:11:27;;;;;;;;;;;;;;;;;;;;;
2021/01/16 17:13:53;;;;;;;17.13;9.60;;;1.20;24.30;;;;;;6266980;22;20404;-80
2021/01/16 17:16:24;;;;;;;16.37;9.73;;;1.20;23.90;;;;;;6349845;22;20409;-81
2021/01/16 17:18:51;;;;;;;15.50;9.50;;;1.20;23.30;;;;;;6348008;22;20397;-80
2021/01/16 17:21:21;;;;;;;16.15;8.57;;;1.30;24.70;;;;;;6349259;22;20419;-80
2021/01/16 17:23:50;;;;;;;15.60;9.47;;;1.20;24.00;;;;;;6349038;22;20177;-80
2021/01/16 17:26:22;;;;;;;20.40;10.80;;;1.30;24.00;;;;;;6339086;22;20443;-80
2021/01/16 17:28:57;;;;;;;13.33;9.70;;;1.40;24.60;;;;;;6349326;22;20526;-80
2021/01/16 17:31:24;;;;;;;18.90;11.55;;;1.30;25.30;;;;;;6339356;22;20392;-80
2021/01/16 17:33:51;;;;;;;18.10;9.30;;;1.30;25.80;;;;;;6337702;22;20151;-80
2021/01/16 17:36:24;;;;;;;16.80;10.03;;;1.30;25.30;;;;;;6349594;22;20186;-80
2021/01/16 17:39:01;;;;;;;;;;;;;;;;;;;;;
2021/01/16 17:41:49;;;;;;;17.27;9.20;;;1.20;26.40;;;;;;6338292;22;20401;-82
2021/01/16 17:44:24;;;;;;;17.33;10.98;;;1.20;26.10;;;;;;6337273;22;20899;-80
2021/01/16 17:46:53;;;;;;;16.77;9.47;;;1.20;26.50;;;;;;6339142;22;20151;-80
2021/01/16 17:49:21;;;;;;;13.10;8.27;;;1.20;27.70;;;;;;6347511;22;20972;-81
2021/01/16 17:51:58;;;;;;;;;;;;;;;;;;;;;
2021/01/16 17:54:26;;;;;;;15.43;9.27;;;1.00;29.70;;;;;;6337918;22;20408;-80
2021/01/16 17:56:54;;;;;;;14.50;8.93;;;1.00;29.10;;;;;;6349216;22;20473;-79
2021/01/16 17:59:22;;;;;;;13.60;7.30;;;0.80;30.40;;;;;;6339255;22;20401;-80
2021/01/16 18:01:50;;;;;;;15.77;9.03;;;0.90;34.50;;;;;;6349360;22;20405;-80
2021/01/16 18:04:20;;;;;;;17.10;9.77;;;0.70;39.80;;;;;;6347683;22;20910;-79
2021/01/16 18:06:48;;;;;;;15.10;9.97;;;0.70;41.40;;;;;;6339217;22;20927;-80
2021/01/16 18:09:14;;;;;;;18.10;8.80;;;0.50;47.90;;;;;;6338788;22;20429;-80
2021/01/16 18:11:42;;;;;;;28.83;12.63;;;0.60;52.60;;;;;;6338932;22;20403;-80
2021/01/16 18:14:08;;;;;;;18.77;11.50;;;0.50;56.90;;;;;;6339121;22;20397;-80
2021/01/16 18:16:36;;;;;;;18.57;11.70;;;0.40;60.00;;;;;;6334078;22;20162;-80
2021/01/16 18:19:16;;;;;;;13.30;7.13;;;0.40;66.10;;;;;;6345583;22;20469;-80
2021/01/16 18:21:46;;;;;;;15.47;8.27;;;0.30;72.50;;;;;;6347483;22;20162;-80
2021/01/16 18:24:16;;;;;;;20.30;11.60;;;0.30;79.60;;;;;;6336439;22;20958;-79
2021/01/16 18:27:08;;;;;;;;;;;;;;;;;;;;;
2021/01/16 18:29:35;;;;;;;14.07;8.77;;;0.10;95.40;;;;;;6320913;22;20444;-80
2021/01/16 18:32:01;;;;;;;16.57;10.00;;;0.10;98.10;;;;;;6345528;22;20932;-80
2021/01/16 18:34:28;;;;;;;18.93;10.80;;;0.20;99.90;;;;;;6346996;22;20397;-80
2021/01/16 18:36:55;;;;;;;22.87;13.70;;;0.00;99.90;;;;;;6347046;22;20480;-79
2021/01/16 18:39:24;;;;;;;18.65;11.60;;;0.10;99.90;;;;;;6336071;22;20400;-80
2021/01/16 18:41:53;;;;;;;18.70;10.63;;;0.00;99.90;;;;;;6336597;22;20241;-79
2021/01/16 18:44:22;;;;;;;20.67;12.70;;;0.00;99.90;;;;;;6336673;22;20872;-80
2021/01/16 18:46:53;;;;;;;23.83;12.97;;;-0.10;99.90;;;;;;6346834;22;20411;-80
2021/01/16 18:49:20;;;;;;;17.57;11.30;;;0.00;99.90;;;;;;6334511;22;20448;-80
2021/01/16 18:51:54;;;;;;;21.40;13.40;;;0.00;99.90;;;;;;6336865;22;20830;-80
2021/01/16 18:54:23;;;;;;;26.80;15.25;;;0.00;99.90;;;;;;6347003;22;20412;-80
2021/01/16 18:56:55;;;;;;;26.20;15.75;;;0.00;99.90;;;;;;6346875;22;20155;-80
2021/01/16 18:59:27;;;;;;;29.50;18.27;;;-0.10;99.90;;;;;;6336546;22;20154;-81
2021/01/16 19:01:54;;;;;;;26.57;15.50;;;-0.10;99.90;;;;;;6338627;22;20435;-80
2021/01/16 19:04:26;;;;;;;28.00;17.55;;;0.00;99.90;;;;;;6337472;22;20401;-80
2021/01/16 19:06:53;;;;;;;28.40;18.90;;;-0.20;99.90;;;;;;6340336;22;20157;-80
2021/01/16 19:09:24;;;;;;;33.47;21.92;;;-0.10;99.90;;;;;;6340006;22;20435;-80
2021/01/16 19:11:54;;;;;;;37.57;23.30;;;-0.10;99.90;;;;;;6340168;22;20785;-80
2021/01/16 19:14:20;;;;;;;31.10;21.13;;;-0.10;99.90;;;;;;6339883;22;20468;-80
2021/01/16 19:16:54;;;;;;;37.60;23.83;;;-0.10;99.90;;;;;;6340401;22;20160;-80
2021/01/16 19:19:21;;;;;;;40.70;26.87;;;-0.10;99.90;;;;;;6348959;22;20161;-79
2021/01/16 19:21:55;;;;;;;40.53;30.10;;;0.00;99.90;;;;;;6350904;22;20872;-81
2021/01/16 19:24:24;;;;;;;50.13;37.30;;;-0.10;99.90;;;;;;6350547;22;20412;-80
2021/01/16 19:27:01;;;;;;;53.37;37.33;;;0.00;99.90;;;;;;6340310;22;20437;-79
2021/01/16 19:29:27;;;;;;;50.90;38.37;;;-0.10;99.90;;;;;;6339895;22;20430;-80
2021/01/16 19:31:56;;;;;;;39.78;34.95;;;-0.10;99.90;;;;;;6340457;22;20732;-80
2021/01/16 19:34:23;;;;;;;48.50;35.27;;;-0.10;99.90;;;;;;6349315;22;20226;-80
2021/01/16 19:36:49;;;;;;;45.35;37.72;;;-0.10;99.90;;;;;;6340250;22;20429;-80
2021/01/16 19:39:17;;;;;;;53.23;42.60;;;-0.10;99.90;;;;;;6340214;22;20208;-80
2021/01/16 19:41:47;;;;;;;67.55;45.20;;;-0.20;99.90;;;;;;6339963;22;20443;-80
2021/01/16 19:44:19;;;;;;;49.70;44.40;;;-0.10;99.90;;;;;;6340152;22;20153;-80
2021/01/16 19:46:46;;;;;;;53.40;47.70;;;-0.10;99.90;;;;;;6339893;22;20950;-80
2021/01/16 19:49:14;;;;;;;57.27;49.77;;;-0.10;99.90;;;;;;6338282;22;20451;-80
2021/01/16 19:51:42;;;;;;;56.23;49.50;;;-0.20;99.90;;;;;;6350746;22;20419;-80
2021/01/16 19:54:12;;;;;;;57.33;51.78;;;-0.10;99.90;;;;;;6340145;22;20399;-80
2021/01/16 19:56:42;;;;;;;61.90;56.03;;;-0.10;99.90;;;;;;6340238;22;20173;-79
2021/01/16 19:59:09;;;;;;;62.20;55.60;;;-0.10;99.90;;;;;;6339767;22;20659;-79
2021/01/16 20:01:37;;;;;;;60.07;52.80;;;-0.10;99.90;;;;;;6350723;22;20158;-79
2021/01/16 20:04:05;;;;;;;64.73;57.83;;;-0.20;99.90;;;;;;6338007;22;20954;-80
2021/01/16 20:06:35;;;;;;;73.03;63.35;;;-0.20;99.90;;;;;;6340132;22;20401;-79
2021/01/16 20:09:03;;;;;;;69.35;61.88;;;-0.20;99.90;;;;;;6350234;22;20273;-80
2021/01/16 20:11:30;;;;;;;74.23;63.67;;;-0.20;99.90;;;;;;6350173;22;20611;-80
2021/01/16 20:13:56;;;;;;;72.63;64.82;;;-0.10;99.90;;;;;;6350247;22;20413;-80
2021/01/16 20:16:22;;;;;;;68.87;61.80;;;-0.20;99.90;;;;;;6350212;22;20456;-79
2021/01/16 20:18:49;;;;;;;71.13;62.58;;;0.00;99.90;;;;;;6338261;22;20472;-79
2021/01/16 20:21:15;;;;;;;74.33;66.60;;;-0.10;99.90;;;;;;6340052;22;20236;-79
2021/01/16 20:23:44;;;;;;;86.25;72.78;;;-0.10;99.90;;;;;;6350201;22;20404;-79
2021/01/16 20:26:13;;;;;;;73.07;65.40;;;-0.10;99.90;;;;;;6350059;22;20241;-80
2021/01/16 20:28:46;;;;;;;77.77;67.67;;;-0.10;99.90;;;;;;6350212;22;20463;-79
2021/01/16 20:31:15;;;;;;;75.82;68.07;;;-0.10;99.90;;;;;;6350082;22;20469;-80
2021/01/16 20:33:44;;;;;;;76.72;65.70;;;-0.10;99.90;;;;;;6337744;22;20614;-79
2021/01/16 20:36:11;;;;;;;76.18;68.65;;;-0.10;99.90;;;;;;6350090;22;20699;-79
2021/01/16 20:38:37;;;;;;;81.20;68.10;;;-0.10;99.90;;;;;;6349896;22;20552;-79
2021/01/16 20:41:04;;;;;;;84.23;74.60;;;0.00;99.90;;;;;;6339442;22;20392;-79
2021/01/16 20:43:31;;;;;;;90.77;81.77;;;-0.10;99.90;;;;;;6339526;22;20400;-80
2021/01/16 20:45:57;;;;;;;76.70;69.27;;;-0.10;99.90;;;;;;6349994;22;20436;-78
2021/01/16 20:48:24;;;;;;;83.20;74.53;;;-0.10;99.90;;;;;;6337733;22;20562;-79
2021/01/16 20:50:51;;;;;;;80.20;72.30;;;-0.20;99.90;;;;;;6339693;22;20405;-79
2021/01/16 20:53:17;;;;;;;71.53;64.23;;;-0.10;99.90;;;;;;6352436;22;20439;-78
2021/01/16 20:55:44;;;;;;;67.47;60.58;;;-0.10;99.90;;;;;;6339740;22;20397;-79
2021/01/16 20:58:11;;;;;;;75.07;67.43;;;-0.20;99.90;;;;;;6338941;22;20157;-79
2021/01/16 21:00:37;;;;;;;72.23;65.00;;;-0.10;99.90;;;;;;6339774;22;20818;-78
2021/01/16 21:03:03;;;;;;;68.63;61.37;;;-0.10;99.90;;;;;;6338197;22;20407;-79
2021/01/16 21:05:31;;;;;;;72.93;63.60;;;-0.20;99.90;;;;;;6349896;22;20405;-79
2021/01/16 21:08:00;;;;;;;66.28;59.53;;;-0.20;99.90;;;;;;6349785;22;20251;-79
2021/01/16 21:10:30;;;;;;;66.37;59.83;;;-0.20;99.90;;;;;;6339124;22;20154;-78
2021/01/16 21:12:56;;;;;;;68.43;61.47;;;-0.20;99.90;;;;;;6350074;22;20514;-79
2021/01/16 21:15:23;;;;;;;74.63;67.57;;;-0.20;99.90;;;;;;6350145;22;20151;-79
2021/01/16 21:17:50;;;;;;;73.17;65.90;;;-0.10;99.90;;;;;;6348261;22;20165;-78
2021/01/16 21:20:16;;;;;;;64.57;57.67;;;-0.10;99.90;;;;;;6349948;22;20807;-79
2021/01/16 21:23:00;;;;;;;;;;;;;;;;;;;;;
2021/01/16 21:25:29;;;;;;;68.13;61.03;;;-0.20;99.90;;;;;;6341220;22;20454;-79
2021/01/16 21:27:56;;;;;;;74.68;67.28;;;-0.20;99.90;;;;;;6338748;22;20179;-80
2021/01/16 21:30:23;;;;;;;74.50;67.27;;;-0.10;99.90;;;;;;6349089;22;20165;-79
2021/01/16 21:32:51;;;;;;;74.88;67.03;;;-0.10;99.90;;;;;;6348044;22;20405;-79
2021/01/16 21:35:18;;;;;;;71.28;63.63;;;-0.20;99.90;;;;;;6339008;22;20500;-79
2021/01/16 21:37:49;;;;;;;70.00;62.87;;;-0.20;99.90;;;;;;6339101;22;20526;-79
2021/01/16 21:40:16;;;;;;;71.82;62.58;;;-0.10;99.90;;;;;;6339298;22;20833;-79
2021/01/16 21:42:42;;;;;;;78.13;62.27;;;-0.10;99.90;;;;;;6339776;22;20474;-79
2021/01/16 21:45:10;;;;;;;74.20;66.80;;;-0.10;99.90;;;;;;6339224;22;20434;-79
2021/01/16 21:47:42;;;;;;;74.50;66.93;;;-0.20;99.90;;;;;;6347684;22;20439;-79
2021/01/16 21:50:09;;;;;;;70.32;63.65;;;-0.20;99.90;;;;;;6338550;22;20487;-79
2021/01/16 21:52:42;;;;;;;71.47;63.97;;;-0.10;99.90;;;;;;6342225;22;20190;-80
2021/01/16 21:55:13;;;;;;;72.47;65.03;;;-0.10;99.90;;;;;;6339201;22;20871;-81
2021/01/16 21:57:40;;;;;;;70.60;63.80;;;-0.10;99.90;;;;;;6349471;22;20418;-80
2021/01/16 22:00:08;;;;;;;62.67;56.00;;;-0.10;99.90;;;;;;6349431;22;20438;-80
2021/01/16 22:02:34;;;;;;;67.40;59.88;;;-0.10;99.90;;;;;;6347919;22;20158;-80
2021/01/16 22:05:02;;;;;;;78.70;60.97;;;-0.10;99.90;;;;;;6348806;22;20233;-80
2021/01/16 22:07:28;;;;;;;61.07;54.70;;;-0.10;99.90;;;;;;6338973;22;20401;-80
2021/01/16 22:09:54;;;;;;;64.85;58.47;;;-0.10;99.90;;;;;;6338610;22;20515;-79
2021/01/16 22:12:21;;;;;;;59.70;53.27;;;-0.10;99.90;;;;;;6348924;22;20181;-79
2021/01/16 22:14:47;;;;;;;56.13;49.22;;;-0.20;99.90;;;;;;6348954;22;20483;-79
2021/01/16 22:17:14;;;;;;;59.03;51.77;;;-0.20;99.90;;;;;;6337336;22;20155;-80
2021/01/16 22:19:40;;;;;;;52.43;46.67;;;-0.20;99.90;;;;;;6348990;22;20404;-80
2021/01/16 22:22:08;;;;;;;43.53;38.78;;;-0.20;99.90;;;;;;6338731;22;20903;-80
2021/01/16 22:24:34;;;;;;;48.70;43.47;;;-0.20;99.90;;;;;;6338649;22;20690;-80
2021/01/16 22:27:00;;;;;;;48.00;37.40;;;-0.20;99.90;;;;;;6338478;22;20403;-79
2021/01/16 22:29:27;;;;;;;53.13;39.63;;;-0.10;99.90;;;;;;6338795;22;20428;-79
2021/01/16 22:31:53;;;;;;;48.53;34.87;;;-0.20;99.90;;;;;;6349404;22;20157;-80
2021/01/16 22:34:19;;;;;;;51.30;36.25;;;-0.20;99.90;;;;;;6347356;22;20424;-79
2021/01/16 22:36:48;;;;;;;41.03;31.50;;;-0.20;99.90;;;;;;6348902;22;20158;-79
2021/01/16 22:39:15;;;;;;;51.60;29.83;;;-0.20;99.90;;;;;;6338396;22;20446;-79
2021/01/16 22:41:42;;;;;;;45.47;30.63;;;-0.20;99.90;;;;;;6339062;22;20397;-79
2021/01/16 22:44:10;;;;;;;40.53;30.10;;;-0.10;99.90;;;;;;6349233;22;20186;-79
2021/01/16 22:46:38;;;;;;;46.43;32.40;;;-0.20;99.90;;;;;;6348681;22;20434;-80
2021/01/16 22:49:04;;;;;;;41.33;26.97;;;-0.20;99.90;;;;;;6347134;22;20451;-79
2021/01/16 22:51:33;;;;;;;43.85;28.80;;;-0.20;99.90;;;;;;6338873;22;20401;-79
2021/01/16 22:54:00;;;;;;;40.40;27.70;;;-0.20;99.90;;;;;;6338931;22;20527;-79
2021/01/16 22:56:27;;;;;;;49.78;32.05;;;-0.20;99.90;;;;;;6338667;22;20242;-79
2021/01/16 22:58:53;;;;;;;49.70;34.70;;;-0.20;99.90;;;;;;6348816;22;20167;-79
2021/01/16 23:01:21;;;;;;;51.00;34.13;;;-0.20;99.90;;;;;;6338680;22;20400;-79
2021/01/16 23:03:47;;;;;;;45.28;31.33;;;-0.20;99.90;;;;;;6337074;22;20784;-79
2021/01/16 23:06:14;;;;;;;47.73;35.53;;;-0.20;99.90;;;;;;6338820;22;20183;-79
2021/01/16 23:08:41;;;;;;;45.45;33.72;;;-0.20;99.90;;;;;;6338541;22;20846;-79
2021/01/16 23:11:09;;;;;;;51.50;34.40;;;-0.20;99.90;;;;;;6338770;22;20158;-79
2021/01/16 23:13:37;;;;;;;56.65;34.65;;;-0.20;99.90;;;;;;6349139;22;20450;-79
2021/01/16 23:16:04;;;;;;;47.57;35.10;;;-0.20;99.90;;;;;;6338561;22;20151;-79
2021/01/16 23:18:32;;;;;;;49.80;33.17;;;-0.20;99.90;;;;;;6336657;22;20400;-79
2021/01/16 23:20:59;;;;;;;49.37;34.97;;;-0.20;99.90;;;;;;6338592;22;20411;-79
2021/01/16 23:23:26;;;;;;;47.53;34.80;;;-0.20;99.90;;;;;;6348885;22;20912;-79
2021/01/16 23:25:54;;;;;;;50.90;37.17;;;-0.30;99.90;;;;;;6338634;22;20396;-80
2021/01/16 23:28:22;;;;;;;50.92;36.47;;;-0.20;99.90;;;;;;6338377;22;20173;-79
2021/01/16 23:30:49;;;;;;;60.57;42.87;;;-0.20;99.90;;;;;;6338422;22;20162;-78
2021/01/16 23:33:18;;;;;;;56.73;38.90;;;-0.20;99.90;;;;;;6336651;22;20868;-79
2021/01/16 23:35:44;;;;;;;52.90;39.90;;;-0.20;99.90;;;;;;6337893;22;20895;-79
2021/01/16 23:38:11;;;;;;;51.60;43.88;;;-0.20;99.90;;;;;;6338143;22;20401;-79
2021/01/16 23:40:37;;;;;;;55.50;43.50;;;-0.30;99.90;;;;;;6338083;22;20602;-79
2021/01/16 23:43:05;;;;;;;59.40;47.37;;;-0.20;99.90;;;;;;6338526;22;20229;-79
2021/01/16 23:45:32;;;;;;;61.77;51.27;;;-0.30;99.90;;;;;;6338393;22;20773;-78
2021/01/16 23:48:00;;;;;;;62.07;54.80;;;-0.20;99.90;;;;;;6337106;22;20436;-78
2021/01/16 23:50:26;;;;;;;63.92;54.67;;;-0.20;99.90;;;;;;6338141;22;20484;-79
2021/01/16 23:52:53;;;;;;;68.80;61.90;;;-0.20;99.90;;;;;;6340141;22;20151;-80
2021/01/16 23:55:19;;;;;;;63.57;55.10;;;-0.20;99.90;;;;;;6340094;22;20921;-80
2021/01/16 23:57:45;;;;;;;71.78;64.25;;;-0.30;99.90;;;;;;6340145;22;20488;-79
